Time;durP1;ratioP1;P1;durP2;ratioP2;P2;SDS_P1;SDS_P2;PMS_P1;PMS_P2;Temp;Humidity;BMP_temperature;BMP_pressure;BME280_temperature;BME280_humidity;BME280_pressure;Samples;Min_cycle;Max_cycle;Signal;HPM_P1;HPM_P2
2022/04/26 03:38:23;;;;;;;51.80;47.20;;;;;;;5.78;100.00;102027.76;1913074;74;86332;-69
2022/04/26 03:44:07;;;;;;;52.50;47.97;;;;;;;5.38;100.00;102023.95;1987079;71;39840;-69
2022/04/26 03:49:51;;;;;;;52.17;47.57;;;;;;;5.50;100.00;102031.80;1910859;74;86473;-75
2022/04/26 03:55:37;;;;;;;54.23;49.30;;;;;;;5.60;100.00;102025.81;1882372;74;86124;-75
2022/04/26 04:01:20;;;;;;;50.43;45.93;;;;;;;5.53;100.00;102042.06;1890302;74;86632;-69
2022/04/26 04:07:05;;;;;;;51.27;46.97;;;;;;;5.32;100.00;102052.38;1988153;71;39680;-68
2022/04/26 04:12:50;;;;;;;52.60;47.90;;;;;;;5.31;100.00;102044.32;1882657;74;86224;-68
2022/04/26 04:15:22;;;;;;;52.13;47.33;;;;;;;5.26;100.00;102052.42;1848662;75;936701;-68
2022/04/26 04:21:06;;;;;;;51.97;47.47;;;;;;;5.23;100.00;102057.83;1977490;71;39593;-76
2022/04/26 04:26:52;;;;;;;51.17;46.40;;;;;;;5.35;100.00;102060.19;1836263;76;86294;-73
2022/04/26 04:32:36;;;;;;;53.07;48.03;;;;;;;5.39;100.00;102057.30;1884589;73;85945;-75
2022/04/26 04:38:20;;;;;;;53.37;48.10;;;;;;;5.46;100.00;102062.25;1913958;73;85489;-68
2022/04/26 04:44:11;;;;;;;52.10;47.53;;;;;;;5.43;100.00;102065.44;1982235;71;39694;-69
2022/04/26 04:49:57;;;;;;;52.50;47.97;;;;;;;5.21;100.00;102075.66;1948547;72;86393;-75
2022/04/26 04:55:41;;;;;;;53.87;49.03;;;;;;;5.37;100.00;102073.75;1891065;73;86630;-70
2022/04/26 05:01:24;;;;;;;55.07;50.30;;;;;;;5.33;100.00;102086.28;1919094;72;86533;-68
2022/04/26 05:07:09;;;;;;;55.43;50.60;;;;;;;5.29;100.00;102079.00;1964520;71;40046;-68
2022/04/26 05:12:53;;;;;;;52.77;48.07;;;;;;;5.38;100.00;102089.23;1838463;76;86395;-68
2022/04/26 05:18:36;;;;;;;56.27;51.40;;;;;;;5.31;100.00;102089.25;1878798;75;86735;-68
2022/04/26 05:30:26;;;;;;;52.83;48.23;;;;;;;5.48;100.00;102109.70;1806598;77;85519;-69
2022/04/26 05:36:10;;;;;;;54.63;49.13;;;;;;;5.57;100.00;102112.20;1978830;70;39561;-68
2022/04/26 05:41:57;;;;;;;58.63;52.70;;;;;;;5.77;100.00;102121.21;1843276;76;85488;-77
2022/04/26 05:47:44;;;;;;;54.27;49.17;;;;;;;5.78;100.00;102129.23;1885899;73;86454;-75
2022/04/26 05:53:29;;;;;;;56.37;51.23;;;;;;;5.81;100.00;102133.48;1808650;77;86151;-75
2022/04/26 05:59:12;;;;;;;59.57;53.60;;;;;;;6.09;100.00;102142.73;1985894;71;39541;-68
2022/04/26 06:04:57;;;;;;;57.57;52.10;;;;;;;6.04;100.00;102140.64;1830471;76;85952;-67
2022/04/26 06:10:42;;;;;;;58.07;52.50;;;;;;;6.19;100.00;102145.31;1884495;74;86091;-75
2022/04/26 06:16:26;;;;;;;58.50;53.47;;;;;;;6.30;100.00;102151.47;1801951;77;85221;-69
2022/04/26 06:22:10;;;;;;;63.03;57.23;;;;;;;6.62;100.00;102163.30;1939433;71;39693;-77
2022/04/26 06:27:55;;;;;;;60.70;54.77;;;;;;;6.62;100.00;102168.82;1973374;72;86801;-75
2022/04/26 06:33:39;;;;;;;63.70;57.97;;;;;;;6.83;100.00;102173.07;1881302;73;86449;-74
2022/04/26 06:39:23;;;;;;;74.57;68.10;;;;;;;6.96;100.00;102170.70;1913056;73;85278;-76
2022/04/26 06:45:09;;;;;;;74.10;67.90;;;;;;;7.19;100.00;102170.31;1985495;71;39575;-72
2022/04/26 06:50:56;;;;;;;71.63;65.53;;;;;;;7.29;100.00;102177.53;1841358;76;86304;-68
2022/04/26 06:56:45;;;;;;;70.20;63.97;;;;;;;7.33;100.00;102177.38;1906654;74;86153;-74
2022/04/26 07:02:28;;;;;;;69.87;63.93;;;;;;;7.49;100.00;102187.48;1875924;75;86314;-68
2022/04/26 07:08:12;;;;;;;72.90;66.77;;;;;;;7.86;100.00;102193.27;1980383;71;39724;-74
2022/04/26 07:13:58;;;;;;;70.60;64.70;;;;;;;8.00;100.00;102194.75;1974941;72;86404;-73
2022/04/26 07:19:42;;;;;;;73.47;67.47;;;;;;;8.19;100.00;102196.92;1888089;73;86829;-69
2022/04/26 07:25:30;;;;;;;64.07;58.93;;;;;;;8.40;100.00;102198.32;1863537;75;85649;-66
2022/04/26 07:31:14;;;;;;;72.77;67.17;;;;;;;8.52;100.00;102203.33;1978206;71;40297;-66
2022/04/26 07:37:02;;;;;;;65.70;60.90;;;;;;;8.72;100.00;102203.02;1834495;76;86473;-74
2022/04/26 07:42:47;;;;;;;68.03;63.33;;;;;;;9.24;100.00;102208.94;1809044;78;86569;-68
2022/04/26 07:48:31;;;;;;;64.93;60.53;;;;;;;9.65;100.00;102203.73;1808520;77;86350;-75
2022/04/26 07:54:16;;;;;;;66.77;61.97;;;;;;;9.98;100.00;102198.83;1977322;71;39598;-73
2022/04/26 08:00:00;;;;;;;68.37;63.87;;;;;;;9.84;100.00;102206.60;1838425;76;86516;-67
2022/04/26 08:05:44;;;;;;;67.43;62.73;;;;;;;10.30;100.00;102196.41;1886345;74;85597;-72
2022/04/26 08:11:31;;;;;;;64.63;60.53;;;;;;;11.03;100.00;102200.94;1857675;76;86408;-76
2022/04/26 08:17:17;;;;;;;63.87;59.93;;;;;;;11.10;100.00;102200.20;1941508;71;39627;-67
2022/04/26 08:23:02;;;;;;;57.03;53.47;;;;;;;11.37;100.00;102196.98;1808615;78;85573;-66
2022/04/26 08:28:49;;;;;;;58.47;54.80;;;;;;;11.35;100.00;102203.34;1801433;78;86259;-74
2022/04/26 08:34:33;;;;;;;54.77;51.37;;;;;;;11.60;100.00;102200.04;1808811;77;86721;-65
2022/04/26 08:40:20;;;;;;;45.13;42.43;;;;;;;11.73;100.00;102203.31;1949440;73;86733;-67
2022/04/26 08:46:04;;;;;;;49.00;46.23;;;;;;;12.65;100.00;102196.17;1975236;71;39788;-68
2022/04/26 08:55:04;;;;;;;39.27;37.10;;;;;;;12.25;100.00;102195.25;1899710;74;86454;-67
2022/04/26 09:01:08;;;;;;;38.53;36.33;;;;;;;12.75;100.00;102197.63;1805631;78;86633;-66
2022/04/26 09:06:54;;;;;;;30.70;28.67;;;;;;;12.89;100.00;102199.97;1834976;76;85741;-74
2022/04/26 09:13:06;;;;;;;26.87;25.27;;;;;;;13.35;100.00;102203.94;1880399;74;85871;-66
2022/04/26 09:18:59;;;;;;;29.87;28.30;;;;;;;13.56;100.00;102209.91;1881039;75;86280;-66
2022/04/26 09:24:57;;;;;;;29.07;27.47;;;;;;;13.93;100.00;102206.97;1872980;75;86733;-73
2022/04/26 09:30:43;;;;;;;21.77;20.27;;;;;;;13.77;100.00;102206.09;1895677;73;85568;-74
2022/04/26 09:36:29;;;;;;;20.10;19.00;;;;;;;13.79;100.00;102212.22;1805126;77;85959;-65
2022/04/26 09:42:14;;;;;;;18.73;17.40;;;;;;;13.81;100.00;102215.59;1947650;71;39763;-67
2022/04/26 09:48:00;;;;;;;19.13;17.80;;;;;;;13.60;100.00;102220.81;1981793;70;86460;-66
2022/04/26 09:53:47;;;;;;;19.03;17.50;;;;;;;13.71;100.00;102218.34;1810015;78;84787;-75
2022/04/26 09:59:33;;;;;;;19.10;17.53;;;;;;;14.01;100.00;102221.25;1873252;73;85590;-67
2022/04/26 10:05:21;;;;;;;17.77;16.37;;;;;;;14.08;100.00;102218.17;1938111;72;86435;-75
2022/04/26 10:11:07;;;;;;;17.50;16.10;;;;;;;13.82;100.00;102219.23;1940869;72;39713;-75
2022/04/26 10:16:53;;;;;;;16.93;15.80;;;;;;;14.20;100.00;102216.00;1859098;76;86547;-71
2022/04/26 10:23:01;;;;;;;17.70;16.13;;;;;;;14.50;100.00;102209.64;1893276;74;86690;-68
2022/04/26 10:28:52;;;;;;;19.03;17.30;;;;;;;14.37;100.00;102214.38;1884620;74;86646;-73
2022/04/26 10:34:51;;;;;;;18.60;17.10;;;;;;;14.33;100.00;102214.06;1889048;74;85595;-74
2022/04/26 10:41:10;;;;;;;18.93;17.23;;;;;;;14.35;100.00;102214.64;1885395;74;86239;-67
2022/04/26 10:47:23;;;;;;;16.63;15.23;;;;;;;14.74;100.00;102212.15;1828884;76;86695;-67
2022/04/26 10:53:09;;;;;;;15.63;14.53;;;;;;;14.50;100.00;102203.45;1984037;71;39707;-66
2022/04/26 10:58:57;;;;;;;17.70;16.30;;;;;;;14.58;100.00;102215.52;1848239;76;86373;-66
2022/04/26 11:04:43;;;;;;;16.03;14.80;;;;;;;14.69;100.00;102205.16;1914625;74;86660;-74
2022/04/26 11:11:00;;;;;;;15.87;14.60;;;;;;;14.97;100.00;102214.94;1808247;77;86705;-66
2022/04/26 11:16:19;;;;;;;15.03;13.93;;;;;;;15.11;100.00;102204.83;1923316;73;86011;-74
2022/04/26 11:22:12;;;;;;;15.13;13.93;;;;;;;14.82;100.00;102197.59;1983470;71;39620;-76
2022/04/26 11:28:02;;;;;;;12.87;12.20;;;;;;;15.03;100.00;102204.00;1831824;76;86644;-65
2022/04/26 11:33:52;;;;;;;12.17;11.53;;;;;;;15.05;100.00;102201.78;1808184;78;86357;-67
2022/04/26 11:39:44;;;;;;;12.60;12.00;;;;;;;15.47;100.00;102204.19;1873194;73;86562;-74
2022/04/26 11:45:29;;;;;;;12.13;11.53;;;;;;;15.26;100.00;102212.37;1801038;77;85585;-67
2022/04/26 11:51:14;;;;;;;11.57;11.07;;;;;;;15.25;100.00;102212.08;1975860;71;39822;-66
2022/04/26 11:57:01;;;;;;;12.57;11.97;;;;;;;15.41;100.00;102213.16;1803697;78;86544;-65
2022/04/26 12:02:48;;;;;;;14.77;14.17;;;;;;;15.36;100.00;102208.16;1783783;78;86263;-76
2022/04/26 12:08:40;;;;;;;11.50;11.00;;;;;;;15.40;100.00;102211.47;1883613;75;86282;-74
2022/04/26 12:14:37;;;;;;;11.80;11.30;;;;;;;15.45;100.00;102209.22;1808471;77;86474;-66
2022/04/26 12:17:19;;;;;;;11.63;11.13;;;;;;;15.48;100.00;102209.52;1745411;78;938792;-67
2022/04/26 12:23:03;;;;;;;11.43;10.93;;;;;;;15.67;100.00;102206.09;1822044;75;86656;-75
2022/04/26 12:32:06;;;;;;;11.37;10.80;;;;;;;15.67;100.00;102210.30;1892715;74;86746;-65
2022/04/26 12:38:04;;;;;;;11.53;11.00;;;;;;;15.98;100.00;102200.63;1893442;74;86792;-66
2022/04/26 12:44:02;;;;;;;11.47;10.97;;;;;;;15.96;100.00;102200.06;1768729;79;85265;-74
2022/04/26 12:46:45;;;;;;;10.97;10.47;;;;;;;15.85;100.00;102206.86;1734845;78;938968;-73
2022/04/26 12:52:34;;;;;;;11.20;10.63;;;;;;;15.59;100.00;102202.48;1866528;75;86630;-66
2022/04/26 12:58:18;;;;;;;10.90;10.50;;;;;;;16.01;100.00;102195.84;1979700;71;39763;-66
2022/04/26 13:04:07;;;;;;;11.97;11.27;;;;;;;16.16;100.00;102190.16;1879099;75;86541;-75
2022/04/26 13:09:51;;;;;;;12.27;11.67;;;;;;;15.74;100.00;102199.08;1881650;74;86311;-65
2022/04/26 13:12:24;;;;;;;11.80;11.30;;;;;;;15.77;100.00;102191.48;1828319;76;938691;-65
2022/04/26 13:18:10;;;;;;;11.87;11.37;;;;;;;16.02;93.91;102179.30;1984335;71;39675;-74
2022/04/26 13:23:57;;;;;;;11.73;11.23;;;;;;;16.37;100.00;102182.43;1979596;72;86512;-74
2022/04/26 13:29:41;;;;;;;12.40;11.80;;;;;;;16.49;100.00;102179.25;1881247;73;86456;-74
2022/04/26 13:35:27;;;;;;;12.67;12.07;;;;;;;16.29;100.00;102185.30;1947395;73;85540;-73
2022/04/26 13:41:14;;;;;;;12.57;11.97;;;;;;;15.78;100.00;102177.77;1975704;71;39756;-66
2022/04/26 13:47:04;;;;;;;12.50;11.80;;;;;;;15.97;100.00;102175.68;1836078;76;86693;-73
2022/04/26 13:52:51;;;;;;;12.33;11.83;;;;;;;15.86;100.00;102177.72;1886476;74;86356;-68
2022/04/26 13:58:34;;;;;;;12.27;11.67;;;;;;;15.97;100.00;102169.52;1861166;74;86298;-67
2022/04/26 14:04:21;;;;;;;12.60;11.80;;;;;;;15.73;100.00;102173.58;1872520;72;86576;-68
2022/04/26 14:10:09;;;;;;;12.60;11.70;;;;;;;15.76;100.00;102162.34;1986453;71;39827;-75
2022/04/26 14:21:57;;;;;;;13.50;12.87;;;;;;;16.83;100.00;102147.27;1845973;76;86518;-68
2022/04/26 14:27:43;;;;;;;12.70;12.10;;;;;;;16.85;100.00;102152.59;1902905;73;86197;-67
2022/04/26 14:33:29;;;;;;;12.50;11.93;;;;;;;15.84;100.00;102161.74;1872071;75;86436;-68
2022/04/26 14:39:16;;;;;;;12.67;12.07;;;;;;;15.52;100.00;102165.00;1977969;71;39589;-75
2022/04/26 14:45:02;;;;;;;12.47;11.73;;;;;;;15.42;100.00;102167.23;1827379;76;86594;-76
2022/04/26 14:50:47;;;;;;;14.00;13.30;;;;;;;15.63;100.00;102158.21;1808093;78;86071;-76
2022/04/26 14:56:31;;;;;;;15.53;14.83;;;;;;;16.07;100.00;102162.45;1878937;74;85475;-76
2022/04/26 15:02:14;;;;;;;12.83;12.20;;;;;;;15.99;100.00;102168.67;1947674;71;40177;-67
2022/04/26 15:20:04;;;;;;;12.00;11.40;;;;;;;15.22;100.00;102172.06;1812565;78;85357;-78
2022/04/26 15:25:50;;;;;;;13.07;12.37;;;;;;;15.24;100.00;102166.45;1810340;78;86643;-68
2022/04/26 15:31:34;;;;;;;12.30;11.70;;;;;;;15.26;100.00;102168.97;1888624;75;85853;-76
2022/04/26 15:37:19;;;;;;;12.70;12.00;;;;;;;15.35;100.00;102167.27;1929224;71;85514;-76
2022/04/26 15:43:06;;;;;;;12.40;11.80;;;;;;;15.53;100.00;102161.64;1803237;78;86397;-68
2022/04/26 15:48:52;;;;;;;12.50;11.90;;;;;;;15.52;100.00;102166.40;1875248;74;86400;-68
2022/04/26 15:54:37;;;;;;;12.40;11.90;;;;;;;15.44;100.00;102166.95;1878082;74;86057;-73
2022/04/26 16:00:20;;;;;;;12.90;12.30;;;;;;;15.38;100.00;102178.73;1914983;74;86448;-73
2022/04/26 16:06:05;;;;;;;13.10;12.40;;;;;;;15.47;100.00;102174.78;1985820;71;39742;-73
2022/04/26 16:23:54;;;;;;;11.90;11.30;;;;;;;15.40;100.00;102186.86;1833114;75;85588;-76
2022/04/26 16:29:40;;;;;;;11.93;11.27;;;;;;;15.29;100.00;102191.63;1896652;73;85580;-66
2022/04/26 16:35:25;;;;;;;12.40;11.90;;;;;;;15.21;100.00;102186.63;1944322;72;86198;-68
2022/04/26 16:41:10;;;;;;;12.40;11.80;;;;;;;15.17;100.00;102185.52;1986577;71;39711;-69
2022/04/26 16:46:54;;;;;;;11.60;11.10;;;;;;;15.02;100.00;102194.77;1825492;76;86265;-72
2022/04/26 16:52:38;;;;;;;11.87;11.23;;;;;;;15.06;100.00;102190.03;1876461;75;86582;-72
2022/04/26 16:58:24;;;;;;;12.83;12.13;;;;;;;14.79;100.00;102195.38;1870871;74;86586;-70
2022/04/26 17:04:10;;;;;;;12.93;12.23;;;;;;;14.70;100.00;102210.19;1968078;71;39549;-75
2022/04/26 17:09:54;;;;;;;11.10;10.50;;;;;;;14.80;100.00;102208.80;1851613;75;86536;-76
2022/04/26 17:15:37;;;;;;;12.60;12.00;;;;;;;14.66;100.00;102216.91;1872580;75;85286;-75
2022/04/26 17:21:25;;;;;;;12.03;11.53;;;;;;;14.62;100.00;102225.58;1911941;72;85984;-76
2022/04/26 17:27:10;;;;;;;12.83;12.23;;;;;;;14.47;100.00;102224.99;1984408;71;39610;-75
2022/04/26 17:32:56;;;;;;;11.77;11.17;;;;;;;14.47;100.00;102231.98;1964829;71;86711;-74
2022/04/26 17:38:40;;;;;;;13.17;12.37;;;;;;;14.25;100.00;102238.34;1884033;73;85245;-77
2022/04/26 17:44:26;;;;;;;12.40;11.60;;;;;;;14.33;100.00;102239.78;1913311;73;86344;-77
2022/04/26 17:50:12;;;;;;;13.00;12.13;;;;;;;14.24;100.00;102243.67;1925938;71;39503;-79
2022/04/26 18:01:58;;;;;;;11.97;11.47;;;;;;;14.03;100.00;102252.53;1826174;75;86311;-75
2022/04/26 18:07:42;;;;;;;12.10;11.60;;;;;;;14.03;100.00;102252.53;1869851;75;85657;-78
2022/04/26 18:13:31;;;;;;;12.43;11.80;;;;;;;13.89;100.00;102265.34;1861245;76;86366;-73
2022/04/26 18:19:16;;;;;;;12.07;11.47;;;;;;;13.99;100.00;102272.35;1954486;71;39721;-77
2022/04/26 18:25:00;;;;;;;12.37;11.67;;;;;;;13.72;100.00;102273.09;1817801;76;86315;-75
2022/04/26 18:30:44;;;;;;;12.17;11.57;;;;;;;13.76;100.00;102277.02;1873980;74;86419;-76
2022/04/26 18:36:28;;;;;;;12.60;11.90;;;;;;;13.60;100.00;102280.30;1859394;74;86296;-75
2022/04/26 18:42:13;;;;;;;12.20;11.60;;;;;;;13.54;100.00;102277.17;1983222;71;39618;-76
2022/04/26 18:47:57;;;;;;;12.67;11.73;;;;;;;13.52;100.00;102291.13;1815598;76;86321;-75
2022/04/26 18:53:42;;;;;;;12.00;11.40;;;;;;;13.38;100.00;102295.50;1898592;73;86072;-74
2022/04/26 18:59:25;;;;;;;11.83;11.23;;;;;;;13.36;100.00;102301.34;1917368;74;86412;-76
2022/04/26 19:05:10;;;;;;;11.77;11.27;;;;;;;13.42;100.00;102317.03;1986321;71;40462;-76
2022/04/26 19:16:58;;;;;;;12.57;11.80;;;;;;;13.17;100.00;102320.47;1832077;76;86372;-75
2022/04/26 19:22:42;;;;;;;12.40;11.80;;;;;;;13.23;100.00;102326.36;1871363;75;86236;-76
2022/04/26 19:28:27;;;;;;;12.30;11.60;;;;;;;13.04;100.00;102333.98;1800924;77;86398;-82
2022/04/26 19:34:11;;;;;;;12.60;11.93;;;;;;;13.13;100.00;102341.65;1986069;71;39455;-76
2022/04/26 19:39:55;;;;;;;13.03;12.40;;;;;;;12.93;100.00;102349.78;1973084;72;86543;-74
2022/04/26 19:45:40;;;;;;;12.83;12.13;;;;;;;12.84;100.00;102357.48;1882071;74;86276;-76
2022/04/26 19:51:27;;;;;;;13.70;12.90;;;;;;;12.77;100.00;102358.56;1907646;72;86259;-75
2022/04/26 19:57:13;;;;;;;13.07;12.43;;;;;;;12.82;100.00;102366.69;1976447;71;39487;-75
2022/04/26 20:02:55;;;;;;;13.53;12.73;;;;;;;12.70;100.00;102371.88;1837096;76;86321;-78
2022/04/26 20:08:40;;;;;;;13.60;12.70;;;;;;;12.77;100.00;102377.23;1889667;73;85341;-76
2022/04/26 20:14:25;;;;;;;13.67;12.87;;;;;;;12.59;100.00;102384.00;1939966;71;86388;-76
2022/04/26 20:20:11;;;;;;;13.00;12.20;;;;;;;12.71;100.00;102386.64;1974949;71;39382;-72
2022/04/26 20:31:57;;;;;;;13.57;12.70;;;;;;;12.38;100.00;102397.41;1828535;76;86555;-71
2022/04/26 20:37:43;;;;;;;13.33;12.53;;;;;;;12.37;100.00;102401.29;1884193;74;85427;-73
2022/04/26 20:43:28;;;;;;;12.70;11.80;;;;;;;12.47;100.00;102403.37;1872018;75;86429;-74
2022/04/26 20:49:13;;;;;;;12.50;11.70;;;;;;;12.44;100.00;102406.14;1982874;71;39647;-76
2022/04/26 20:55:00;;;;;;;12.60;11.70;;;;;;;12.28;100.00;102403.69;1831794;76;86594;-76
2022/04/26 21:00:43;;;;;;;12.00;11.47;;;;;;;12.37;100.00;102411.59;1872232;75;85993;-73
2022/04/26 21:06:27;;;;;;;12.13;11.40;;;;;;;12.18;100.00;102411.94;1866748;74;86322;-75
2022/04/26 21:12:13;;;;;;;11.87;11.27;;;;;;;12.05;100.00;102421.20;1976718;71;39597;-77
2022/04/26 21:17:58;;;;;;;12.23;11.53;;;;;;;12.05;100.00;102423.98;1833096;75;85440;-75
2022/04/26 21:23:42;;;;;;;11.87;11.17;;;;;;;12.11;100.00;102421.55;1894412;74;86024;-76
2022/04/26 21:29:26;;;;;;;11.50;11.00;;;;;;;12.05;100.00;102427.63;1806392;76;85848;-74
2022/04/26 21:35:12;;;;;;;11.83;11.23;;;;;;;11.84;100.00;102428.42;1983875;71;39506;-76
2022/04/26 21:40:56;;;;;;;12.57;11.97;;;;;;;11.66;100.00;102435.61;1841980;76;86268;-74
2022/04/26 21:46:39;;;;;;;12.70;12.00;;;;;;;11.34;100.00;102436.73;1902229;74;86181;-73
2022/04/26 21:52:23;;;;;;;13.00;12.20;;;;;;;11.11;100.00;102442.45;1917087;74;86442;-70
2022/04/26 21:58:06;;;;;;;13.27;12.43;;;;;;;10.87;100.00;102459.78;1987479;71;39615;-72
2022/04/26 22:03:54;;;;;;;14.90;14.10;;;;;;;10.65;100.00;102458.80;1841502;76;86329;-73
2022/04/26 22:09:39;;;;;;;16.13;15.33;;;;;;;10.54;100.00;102462.44;1874687;75;86409;-72
2022/04/26 22:15:24;;;;;;;19.57;18.67;;;;;;;10.15;100.00;102473.25;1924748;72;86406;-74
2022/04/26 22:21:09;;;;;;;24.43;23.03;;;;;;;9.89;100.00;102475.09;1986532;71;39559;-73
2022/04/26 22:26:53;;;;;;;27.40;25.90;;;;;;;9.49;100.00;102495.22;1844490;76;86262;-73
2022/04/26 22:32:38;;;;;;;27.53;25.93;;;;;;;9.44;100.00;102499.25;1875531;75;86168;-74
2022/04/26 22:38:23;;;;;;;31.60;29.80;;;;;;;9.53;100.00;102499.21;1914044;72;86379;-72
2022/04/26 22:44:09;;;;;;;36.03;33.93;;;;;;;9.55;100.00;102498.41;1974435;71;39488;-71
2022/04/26 22:49:54;;;;;;;33.47;31.47;;;;;;;9.22;100.00;102506.95;1838014;76;86195;-76
2022/04/26 22:55:41;;;;;;;42.03;39.63;;;;;;;9.13;100.00;102518.37;1921044;73;85755;-74
2022/04/26 23:01:24;;;;;;;49.30;46.40;;;;;;;8.91;100.00;102519.95;1907737;72;86539;-71
2022/04/26 23:07:09;;;;;;;54.80;51.80;;;;;;;8.81;100.00;102523.84;1987076;71;40078;-71
2022/04/26 23:12:54;;;;;;;56.77;53.67;;;;;;;8.58;100.00;102530.61;1829895;76;86217;-72
2022/04/26 23:18:39;;;;;;;58.03;54.53;;;;;;;8.80;100.00;102530.98;1868980;75;86266;-73
2022/04/26 23:24:22;;;;;;;59.00;55.43;;;;;;;8.39;100.00;102531.67;1911099;74;85608;-71
2022/04/26 23:30:10;;;;;;;59.23;55.53;;;;;;;8.32;100.00;102543.36;1978575;71;39696;-71
2022/04/26 23:35:55;;;;;;;60.47;56.70;;;;;;;8.34;100.00;102542.61;1833863;76;86325;-73
2022/04/26 23:41:40;;;;;;;61.70;58.07;;;;;;;8.20;100.00;102543.25;1829213;76;86609;-72
2022/04/26 23:47:24;;;;;;;59.90;56.40;;;;;;;8.57;100.00;102542.76;1907983;72;86074;-73
2022/04/26 23:53:08;;;;;;;60.40;56.70;;;;;;;8.16;100.00;102540.62;1987798;71;39698;-71
2022/04/26 23:58:51;;;;;;;60.07;56.37;;;;;;;7.81;100.00;102547.75;1893312;74;86731;-71
